Time;durP1;ratioP1;P1;durP2;ratioP2;P2;SDS_P1;SDS_P2;PMS_P1;PMS_P2;Temp;Humidity;BMP_temperature;BMP_pressure;BME280_temperature;BME280_humidity;BME280_pressure;Samples;Min_cycle;Max_cycle;Signal;HPM_P1;HPM_P2
2021/10/15 00:01:01;;;;;;;33.15;20.72;;;;;;;6.87;82.92;101502.74;1743593;80;21228;-64
2021/10/15 00:04:07;;;;;;;31.55;20.92;;;;;;;6.89;82.89;101492.13;1744234;82;21211;-64
2021/10/15 00:07:13;;;;;;;33.08;21.02;;;;;;;6.90;82.97;101498.41;1746047;81;21307;-63
2021/10/15 00:10:20;;;;;;;32.23;20.35;;;;;;;6.89;83.03;101500.28;1747309;79;21276;-66
2021/10/15 00:13:26;;;;;;;29.77;19.30;;;;;;;6.89;83.02;101493.48;1775393;81;21207;-64
2021/10/15 00:16:32;;;;;;;26.00;19.32;;;;;;;6.87;82.99;101498.17;1775684;80;21234;-63
2021/10/15 00:19:39;;;;;;;28.40;20.02;;;;;;;6.86;83.09;101496.94;1775593;79;21223;-64
2021/10/15 00:22:45;;;;;;;26.95;20.32;;;;;;;6.86;83.15;101490.14;1775013;81;21234;-64
2021/10/15 00:25:51;;;;;;;27.30;20.20;;;;;;;6.84;83.21;101495.70;1738411;82;21331;-64
2021/10/15 00:28:56;;;;;;;27.98;20.25;;;;;;;6.85;83.29;101489.78;1774102;81;21187;-64
2021/10/15 00:32:02;;;;;;;27.90;19.62;;;;;;;6.87;83.39;101498.17;1775376;81;21176;-64
2021/10/15 00:35:07;;;;;;;29.67;21.10;;;;;;;6.90;83.41;101503.36;1774980;81;21227;-64
2021/10/15 00:38:12;;;;;;;30.92;22.10;;;;;;;6.91;83.42;101505.09;1774643;81;21191;-64
2021/10/15 00:41:19;;;;;;;28.67;19.70;;;;;;;6.93;83.38;101505.83;1775788;81;21211;-64
2021/10/15 00:44:24;;;;;;;32.35;21.60;;;;;;;6.93;83.39;101506.35;1775664;81;21208;-64
2021/10/15 00:47:31;;;;;;;30.72;20.65;;;;;;;6.93;83.41;101506.35;1738741;82;21360;-65
2021/10/15 00:50:37;;;;;;;29.27;19.90;;;;;;;6.91;83.47;101510.53;1775682;81;21211;-66
2021/10/15 00:53:42;;;;;;;32.78;20.68;;;;;;;6.91;83.60;101509.69;1758174;81;21806;-63
2021/10/15 00:56:51;;;;;;;28.90;21.25;;;;;;;6.89;83.74;101504.37;1738944;82;21847;-66
2021/10/15 00:59:59;;;;;;;29.05;20.37;;;;;;;6.91;83.85;101514.61;1774662;81;21211;-65
2021/10/15 01:03:05;;;;;;;27.58;20.30;;;;;;;6.90;83.92;101518.34;1773800;81;21195;-65
2021/10/15 01:06:11;;;;;;;30.10;20.25;;;;;;;6.90;83.98;101513.38;1775976;80;21243;-64
2021/10/15 01:09:18;;;;;;;31.42;22.40;;;;;;;6.88;84.04;101510.78;1775827;81;21204;-64
2021/10/15 01:12:24;;;;;;;35.75;20.82;;;;;;;6.88;84.10;101516.74;1766263;80;21732;-65
2021/10/15 01:15:31;;;;;;;30.00;21.48;;;;;;;6.88;84.13;101514.02;1758720;81;21216;-65
2021/10/15 01:18:37;;;;;;;31.62;21.57;;;;;;;6.87;84.16;101512.27;1758795;81;21288;-64
2021/10/15 01:21:43;;;;;;;34.20;23.40;;;;;;;6.82;84.14;101512.65;1758745;81;21217;-64
2021/10/15 01:24:50;;;;;;;32.23;21.65;;;;;;;6.78;84.23;101520.70;1758987;81;21354;-63
2021/10/15 01:27:57;;;;;;;32.60;22.30;;;;;;;6.73;84.31;101520.20;1758861;81;21208;-66
2021/10/15 01:31:04;;;;;;;30.50;22.35;;;;;;;6.71;84.35;101519.94;1758787;81;21374;-65
2021/10/15 01:34:09;;;;;;;33.20;21.35;;;;;;;6.65;84.40;101515.88;1758900;81;21782;-66
2021/10/15 01:37:14;;;;;;;30.97;21.82;;;;;;;6.60;84.38;101518.58;1758997;81;21342;-64
2021/10/15 01:40:20;;;;;;;31.75;21.62;;;;;;;6.54;84.47;101517.71;1758849;81;21272;-63
2021/10/15 01:43:28;;;;;;;27.27;20.82;;;;;;;6.47;84.55;101513.25;1759045;81;21204;-64
2021/10/15 01:46:34;;;;;;;31.15;22.73;;;;;;;6.41;84.65;101512.39;1758908;81;21367;-64
2021/10/15 01:49:42;;;;;;;32.90;22.17;;;;;;;6.36;84.76;101502.36;1758959;81;21374;-64
2021/10/15 01:52:47;;;;;;;28.25;20.97;;;;;;;6.30;84.80;101515.57;1758510;81;21188;-63
2021/10/15 01:55:54;;;;;;;33.58;22.65;;;;;;;6.25;84.93;101504.22;1758824;81;21690;-64
2021/10/15 01:58:59;;;;;;;30.08;20.27;;;;;;;6.20;85.02;101503.20;1758859;81;21292;-65
2021/10/15 02:02:04;;;;;;;36.17;21.42;;;;;;;6.14;85.14;101513.72;1758764;81;21856;-65
2021/10/15 02:05:13;;;;;;;34.75;21.62;;;;;;;6.08;85.32;101509.61;1758895;81;21385;-64
2021/10/15 02:08:18;;;;;;;31.95;21.62;;;;;;;6.05;85.38;101510.73;1758825;81;21268;-64
2021/10/15 02:11:26;;;;;;;28.75;21.77;;;;;;;6.02;85.47;101512.81;1758949;81;21354;-64
2021/10/15 02:14:32;;;;;;;31.10;21.20;;;;;;;5.98;85.54;101520.81;1760982;80;21713;-64
2021/10/15 02:17:37;;;;;;;33.58;21.57;;;;;;;5.94;85.58;101519.33;1764061;81;21252;-65
2021/10/15 02:20:44;;;;;;;33.02;21.95;;;;;;;5.89;85.47;101522.89;1763869;81;21378;-64
2021/10/15 02:23:50;;;;;;;33.20;21.48;;;;;;;5.80;85.41;101524.42;1763947;81;21331;-64
2021/10/15 02:26:55;;;;;;;33.33;22.02;;;;;;;5.75;85.49;101522.58;1764033;81;21362;-64
2021/10/15 02:30:02;;;;;;;28.52;20.68;;;;;;;5.70;85.57;101530.20;1763940;81;21402;-65
2021/10/15 02:33:10;;;;;;;30.20;20.25;;;;;;;5.63;85.42;101525.33;1763995;81;21358;-64
2021/10/15 02:36:15;;;;;;;29.02;20.15;;;;;;;5.50;84.98;101519.96;1763870;81;21390;-64
2021/10/15 02:39:22;;;;;;;30.72;20.80;;;;;;;5.37;84.73;101522.38;1763872;81;21367;-64
2021/10/15 02:42:27;;;;;;;27.52;20.52;;;;;;;5.27;84.77;101532.17;1763883;81;21250;-64
2021/10/15 02:45:37;;;;;;;27.95;21.37;;;;;;;5.20;84.89;101533.12;1763984;81;21401;-64
2021/10/15 02:48:41;;;;;;;34.40;22.42;;;;;;;5.12;84.76;101536.05;1763911;81;21398;-64
2021/10/15 02:51:48;;;;;;;28.83;21.40;;;;;;;5.06;84.81;101535.14;1763795;81;21203;-64
2021/10/15 02:54:54;;;;;;;32.42;21.40;;;;;;;5.00;84.74;101532.85;1763537;81;21353;-65
2021/10/15 02:58:01;;;;;;;32.13;21.90;;;;;;;4.96;85.04;101527.29;1763751;81;21208;-64
2021/10/15 03:01:08;;;;;;;32.95;21.82;;;;;;;4.98;85.65;101532.97;1764069;81;21775;-64
2021/10/15 03:04:17;;;;;;;36.63;21.62;;;;;;;5.01;86.12;101530.02;1763922;81;21922;-64
2021/10/15 03:07:25;;;;;;;28.92;19.40;;;;;;;5.00;86.11;101530.14;1757454;81;21414;-64
2021/10/15 03:10:31;;;;;;;29.07;20.55;;;;;;;4.91;85.66;101526.27;1740882;81;21387;-63
2021/10/15 03:13:37;;;;;;;29.92;19.30;;;;;;;4.80;85.26;101530.73;1740854;82;21225;-63
2021/10/15 03:16:44;;;;;;;27.40;19.02;;;;;;;4.70;85.13;101541.38;1773489;80;21846;-63
2021/10/15 03:19:49;;;;;;;28.42;19.25;;;;;;;4.59;84.98;101539.93;1773332;79;21338;-63
2021/10/15 03:22:57;;;;;;;28.77;20.40;;;;;;;4.52;85.04;101539.50;1773563;80;21235;-63
2021/10/15 03:26:04;;;;;;;29.90;19.77;;;;;;;4.49;85.24;101535.66;1772968;79;21348;-62
2021/10/15 03:29:11;;;;;;;30.80;20.48;;;;;;;4.47;85.30;101534.88;1773288;79;21354;-63
2021/10/15 03:32:17;;;;;;;32.38;20.30;;;;;;;4.41;85.07;101536.68;1772554;80;22219;-63
2021/10/15 03:35:23;;;;;;;31.27;20.65;;;;;;;4.35;85.06;101533.05;1772687;79;21404;-64
2021/10/15 03:38:28;;;;;;;31.57;21.70;;;;;;;4.32;85.11;101535.11;1772449;80;21329;-65
2021/10/15 03:41:35;;;;;;;32.17;21.57;;;;;;;4.29;85.16;101534.84;1781458;79;21187;-62
2021/10/15 03:44:40;;;;;;;30.17;20.27;;;;;;;4.27;85.25;101534.56;1765253;81;21717;-63
2021/10/15 03:47:46;;;;;;;29.98;21.12;;;;;;;4.27;85.34;101541.33;1748046;81;21192;-63
2021/10/15 03:50:53;;;;;;;30.97;19.57;;;;;;;4.27;85.31;101535.91;1740422;81;21215;-62
2021/10/15 03:53:57;;;;;;;26.15;18.52;;;;;;;4.24;85.20;101544.27;1743421;82;21361;-63
2021/10/15 03:57:04;;;;;;;31.42;19.85;;;;;;;4.17;84.73;101540.27;1803979;79;21200;-62
2021/10/15 04:00:12;;;;;;;28.10;19.40;;;;;;;4.07;84.57;101550.88;1767635;80;21295;-62
2021/10/15 04:03:20;;;;;;;27.50;18.80;;;;;;;4.02;84.57;101554.38;1765389;81;21267;-62
2021/10/15 04:06:25;;;;;;;32.45;19.37;;;;;;;3.98;84.49;101558.77;1740925;82;21223;-63
2021/10/15 04:09:31;;;;;;;31.40;21.10;;;;;;;3.97;84.78;101561.08;1742018;81;21381;-64
2021/10/15 04:12:37;;;;;;;31.97;18.17;;;;;;;3.98;84.84;101572.31;1802812;79;21702;-64
2021/10/15 04:15:42;;;;;;;35.33;18.57;;;;;;;3.96;84.78;101577.84;1766368;80;21199;-63
2021/10/15 04:18:49;;;;;;;31.12;18.35;;;;;;;3.93;84.68;101581.23;1770688;80;21844;-64
2021/10/15 04:21:56;;;;;;;25.52;16.97;;;;;;;3.90;84.48;101583.64;1770705;81;21358;-64
2021/10/15 04:25:02;;;;;;;25.27;17.92;;;;;;;3.84;84.21;101594.91;1770928;79;21196;-63
2021/10/15 04:28:06;;;;;;;28.67;17.52;;;;;;;3.80;84.09;101590.68;1771621;80;21413;-62
2021/10/15 04:31:12;;;;;;;28.57;17.67;;;;;;;3.73;83.82;101592.52;1771332;79;21776;-64
2021/10/15 04:34:18;;;;;;;25.90;17.60;;;;;;;3.64;83.61;101594.03;1770930;81;21196;-63
2021/10/15 04:37:22;;;;;;;33.25;17.75;;;;;;;3.58;83.78;101598.98;1770854;80;21832;-63
2021/10/15 04:40:27;;;;;;;30.82;17.07;;;;;;;3.59;84.16;101594.81;1770421;81;21294;-62
2021/10/15 04:43:32;;;;;;;37.42;18.75;;;;;;;3.63;84.27;101601.75;1769686;80;21216;-63
2021/10/15 04:46:40;;;;;;;34.08;20.15;;;;;;;3.62;84.00;101603.20;1754715;80;21685;-62
2021/10/15 04:49:48;;;;;;;41.95;19.15;;;;;;;3.61;84.23;101603.72;1763625;81;22228;-63
2021/10/15 04:52:54;;;;;;;39.25;17.48;;;;;;;3.64;84.43;101604.86;1763925;81;21381;-63
2021/10/15 04:56:01;;;;;;;25.72;16.73;;;;;;;3.68;84.73;101611.80;1763723;81;21425;-63
2021/10/15 04:59:07;;;;;;;38.48;17.05;;;;;;;3.71;84.74;101615.64;1763747;81;21863;-64
2021/10/15 05:02:15;;;;;;;26.65;16.87;;;;;;;3.77;84.96;101611.67;1764048;81;21796;-62
2021/10/15 05:05:27;;;;;;;30.68;18.62;;;;;;;3.82;85.11;101608.17;1763637;81;21266;-63
2021/10/15 05:08:43;;;;;;;34.13;20.95;;;;;;;3.88;85.23;101612.70;1763643;81;21951;-62
2021/10/15 05:11:41;;;;;;;39.83;23.12;;;;;;;3.93;85.39;101608.32;1763448;81;21351;-64
2021/10/15 05:14:50;;;;;;;40.15;24.87;;;;;;;3.99;85.50;101618.26;1763351;81;21181;-64
2021/10/15 05:17:55;;;;;;;36.80;23.05;;;;;;;4.07;85.85;101605.06;1719791;81;21677;-64
2021/10/15 05:21:00;;;;;;;37.17;25.35;;;;;;;4.17;86.18;101611.56;1741302;82;21829;-64
2021/10/15 05:24:08;;;;;;;32.55;22.27;;;;;;;4.27;86.39;101620.81;1741670;81;21223;-64
2021/10/15 05:27:14;;;;;;;35.70;24.27;;;;;;;4.38;86.53;101625.48;1741465;81;21208;-64
2021/10/15 05:30:20;;;;;;;41.08;24.23;;;;;;;4.47;86.71;101626.22;1741461;82;21262;-63
2021/10/15 05:33:26;;;;;;;39.20;22.17;;;;;;;4.57;86.85;101631.36;1741252;82;21362;-63
2021/10/15 05:36:33;;;;;;;35.92;20.37;;;;;;;4.68;87.04;101630.63;1741570;82;21349;-64
2021/10/15 05:39:40;;;;;;;33.08;21.57;;;;;;;4.81;87.36;101628.76;1741068;82;21815;-64
2021/10/15 05:42:55;;;;;;;40.00;24.18;;;;;;;4.93;87.64;101636.89;1731369;82;21331;-63
2021/10/15 05:46:02;;;;;;;43.45;24.95;;;;;;;5.07;87.88;101639.52;1741303;82;21228;-63
2021/10/15 05:49:08;;;;;;;34.98;22.67;;;;;;;5.20;88.06;101632.70;1741345;82;21237;-64
2021/10/15 05:52:19;;;;;;;35.55;21.65;;;;;;;5.33;88.18;101638.95;1741267;82;21255;-65
2021/10/15 06:02:01;;;;;;;26.82;18.95;;;;;;;5.69;88.40;101643.06;1751804;80;21200;-63
2021/10/15 06:05:46;;;;;;;;;;;;;;;;;;;;;
2021/10/15 06:15:04;;;;;;;35.73;20.27;;;;;;;6.15;88.28;101651.36;1741289;82;21744;-64
2021/10/15 06:18:20;;;;;;;32.78;20.55;;;;;;;6.26;88.20;101652.77;1742011;80;21294;-65
2021/10/15 06:21:28;;;;;;;34.63;20.55;;;;;;;6.36;88.09;101652.45;1743588;82;21827;-64
2021/10/15 06:24:34;;;;;;;29.77;19.80;;;;;;;6.44;87.92;101644.05;1743478;82;21386;-65
2021/10/15 06:27:40;;;;;;;28.35;18.30;;;;;;;6.53;87.73;101648.80;1743588;82;21378;-63
2021/10/15 06:30:50;;;;;;;28.52;18.65;;;;;;;6.63;87.55;101653.87;1742643;82;21240;-65
2021/10/15 06:33:56;;;;;;;29.07;19.12;;;;;;;6.72;87.33;101650.94;1743104;82;21191;-65
2021/10/15 06:37:01;;;;;;;29.98;19.35;;;;;;;6.80;87.13;101650.69;1743707;82;21343;-65
2021/10/15 06:40:09;;;;;;;29.10;19.30;;;;;;;6.91;86.96;101649.34;1743637;82;21741;-65
2021/10/15 06:43:15;;;;;;;27.35;18.67;;;;;;;7.00;86.79;101645.92;1743503;82;21406;-64
2021/10/15 06:46:22;;;;;;;25.50;17.65;;;;;;;7.11;86.64;101649.13;1743383;82;21386;-64
2021/10/15 06:49:29;;;;;;;31.37;18.75;;;;;;;7.20;86.52;101650.63;1742955;82;21378;-66
2021/10/15 06:52:46;;;;;;;27.65;18.40;;;;;;;7.31;86.37;101649.27;1742491;82;21260;-64
2021/10/15 06:55:47;;;;;;;27.48;17.48;;;;;;;7.41;86.23;101651.62;1742862;82;21743;-65
2021/10/15 06:58:53;;;;;;;26.73;18.30;;;;;;;7.50;85.91;101642.69;1740029;82;21340;-64
2021/10/15 07:01:59;;;;;;;25.92;17.37;;;;;;;7.57;85.58;101641.69;1714240;83;21275;-64
2021/10/15 07:05:05;;;;;;;32.30;19.60;;;;;;;7.67;85.35;101637.71;1759457;79;21409;-64
2021/10/15 07:08:12;;;;;;;31.05;19.35;;;;;;;7.75;85.00;101644.27;1726356;80;21275;-64
2021/10/15 07:11:18;;;;;;;27.30;18.23;;;;;;;7.85;84.57;101648.46;1714483;82;21378;-64
2021/10/15 07:14:27;;;;;;;29.35;17.85;;;;;;;7.93;84.24;101647.33;1715055;82;21310;-64
2021/10/15 07:17:34;;;;;;;28.30;17.52;;;;;;;8.03;83.91;101648.27;1715450;83;21373;-64
2021/10/15 07:20:39;;;;;;;27.82;18.27;;;;;;;8.13;83.68;101649.23;1771472;79;21373;-65
2021/10/15 07:23:45;;;;;;;29.05;18.00;;;;;;;8.23;83.51;101648.88;1786831;80;21248;-65
2021/10/15 07:26:50;;;;;;;27.15;17.98;;;;;;;8.33;83.15;101649.80;1786516;80;21244;-63
2021/10/15 07:29:57;;;;;;;26.57;17.27;;;;;;;8.43;82.98;101657.09;1751603;80;21223;-62
2021/10/15 07:33:03;;;;;;;28.83;17.27;;;;;;;8.54;82.64;101649.34;1750740;82;21243;-64
2021/10/15 07:36:10;;;;;;;25.65;16.67;;;;;;;8.63;82.04;101648.05;1726855;80;21360;-64
2021/10/15 07:39:15;;;;;;;23.40;15.93;;;;;;;8.72;81.50;101651.86;1754834;80;21246;-64
2021/10/15 07:42:22;;;;;;;21.52;14.80;;;;;;;8.80;81.12;101646.07;1756000;81;21843;-64
2021/10/15 07:45:28;;;;;;;23.90;15.23;;;;;;;8.90;80.38;101646.14;1762837;80;21361;-65
2021/10/15 07:48:35;;;;;;;24.10;15.65;;;;;;;8.98;79.85;101647.20;1755759;81;21755;-64
2021/10/15 07:51:41;;;;;;;26.05;16.90;;;;;;;9.09;79.36;101644.88;1756177;81;21238;-64
2021/10/15 07:54:48;;;;;;;28.00;15.70;;;;;;;9.18;78.78;101639.96;1771860;79;21858;-62
2021/10/15 07:57:53;;;;;;;21.95;15.23;;;;;;;9.27;78.23;101640.53;1755549;81;21246;-63
2021/10/15 08:00:59;;;;;;;28.23;15.00;;;;;;;9.34;77.67;101638.96;1741567;81;21270;-64
2021/10/15 08:04:08;;;;;;;24.23;13.65;;;;;;;9.43;77.39;101636.79;1763415;79;21728;-65
2021/10/15 08:07:17;;;;;;;22.95;14.65;;;;;;;9.55;76.72;101639.77;1783633;79;21226;-63
2021/10/15 08:10:23;;;;;;;18.82;12.53;;;;;;;9.65;76.15;101632.97;1786917;78;21210;-65
2021/10/15 08:13:27;;;;;;;16.73;11.38;;;;;;;9.73;75.33;101640.84;1782903;80;21242;-63
2021/10/15 08:16:33;;;;;;;19.07;11.95;;;;;;;9.82;74.18;101641.86;1785665;79;21584;-64
2021/10/15 08:19:41;;;;;;;17.85;12.00;;;;;;;9.89;73.21;101635.70;1769205;79;21705;-64
2021/10/15 08:22:46;;;;;;;16.05;10.35;;;;;;;9.97;72.35;101637.20;1726550;82;21768;-64
2021/10/15 08:25:55;;;;;;;17.17;10.53;;;;;;;10.08;71.32;101641.73;1732423;81;21757;-64
2021/10/15 08:29:00;;;;;;;19.07;11.38;;;;;;;10.16;70.65;101644.11;1712142;83;21195;-64
2021/10/15 08:32:06;;;;;;;12.65;8.68;;;;;;;10.25;70.01;101641.91;1712376;83;21244;-65
2021/10/15 08:35:13;;;;;;;14.00;8.90;;;;;;;10.35;69.46;101637.27;1712681;83;21826;-64
2021/10/15 08:38:19;;;;;;;15.43;8.70;;;;;;;10.45;68.53;101634.54;1695131;83;21212;-64
2021/10/15 08:41:29;;;;;;;11.43;7.67;;;;;;;10.54;67.26;101627.69;1711938;82;21212;-64
2021/10/15 08:44:47;;;;;;;11.25;6.67;;;;;;;10.61;65.95;101616.18;1743749;80;21210;-65
2021/10/15 08:47:54;;;;;;;11.15;6.80;;;;;;;10.70;65.50;101620.77;1732143;83;21199;-65
2021/10/15 08:51:01;;;;;;;12.53;8.20;;;;;;;10.82;64.21;101613.61;1739794;81;21224;-64
2021/10/15 08:54:07;;;;;;;13.03;7.80;;;;;;;10.91;63.59;101614.61;1731631;82;21262;-64
2021/10/15 08:57:15;;;;;;;8.28;5.85;;;;;;;10.97;62.91;101609.41;1729280;83;22077;-64
2021/10/15 09:00:42;;;;;;;9.23;6.15;;;;;;;11.04;60.16;101616.49;1728661;81;21275;-63
2021/10/15 09:03:48;;;;;;;7.62;5.25;;;;;;;11.11;59.49;101616.27;1748346;80;21189;-63
2021/10/15 09:06:56;;;;;;;9.73;5.70;;;;;;;11.20;58.86;101612.62;1747782;81;21191;-65
2021/10/15 09:10:21;;;;;;;9.33;5.25;;;;;;;11.28;58.36;101615.48;1741790;80;21196;-64
2021/10/15 09:13:29;;;;;;;6.37;4.50;;;;;;;11.34;58.20;101610.27;1736134;82;21272;-65
2021/10/15 09:16:35;;;;;;;7.20;4.10;;;;;;;11.39;55.78;101610.67;1701793;83;21207;-64
2021/10/15 09:19:55;;;;;;;8.90;6.12;;;;;;;11.45;55.68;101603.70;1702177;84;21258;-64
2021/10/15 09:23:00;;;;;;;7.95;5.20;;;;;;;11.51;55.46;101603.13;1747793;80;21442;-64
2021/10/15 09:26:10;;;;;;;7.42;5.08;;;;;;;11.58;55.80;101602.85;1751992;79;21218;-63
2021/10/15 09:29:15;;;;;;;7.22;4.47;;;;;;;11.66;55.02;101606.61;1777271;79;21334;-64
2021/10/15 09:32:22;;;;;;;7.85;5.05;;;;;;;11.75;54.47;101596.57;1754379;80;21226;-64
2021/10/15 09:35:35;;;;;;;8.28;4.97;;;;;;;11.80;54.04;101590.12;1746493;80;21803;-65
2021/10/15 09:38:41;;;;;;;7.12;4.78;;;;;;;11.85;54.06;101590.52;1731494;80;21147;-64
2021/10/15 09:41:50;;;;;;;6.60;4.85;;;;;;;11.91;53.84;101588.03;1745906;81;21255;-64
2021/10/15 09:44:57;;;;;;;8.83;5.37;;;;;;;11.96;53.40;101583.44;1740610;81;21489;-64
2021/10/15 09:48:05;;;;;;;7.42;5.28;;;;;;;12.02;53.57;101576.82;1737982;80;21657;-64
2021/10/15 09:51:22;;;;;;;9.48;5.40;;;;;;;12.10;53.49;101573.81;1737181;80;21208;-63
2021/10/15 09:54:29;;;;;;;9.68;5.72;;;;;;;12.17;53.45;101560.67;1720489;81;21258;-65
2021/10/15 09:57:46;;;;;;;8.03;5.45;;;;;;;12.26;53.19;101559.72;1742855;82;21183;-64
2021/10/15 10:00:51;;;;;;;9.88;5.75;;;;;;;12.36;53.07;101558.25;1746283;81;21778;-63
2021/10/15 10:03:58;;;;;;;9.18;5.22;;;;;;;12.43;52.43;101554.70;1741004;81;21192;-62
2021/10/15 10:07:04;;;;;;;9.38;5.75;;;;;;;12.49;52.28;101554.09;1744160;81;21176;-62
2021/10/15 10:10:08;;;;;;;8.23;5.35;;;;;;;12.57;52.03;101554.66;1730795;81;21740;-62
2021/10/15 10:13:16;;;;;;;7.75;5.20;;;;;;;12.64;51.23;101556.59;1747614;82;21228;-64
2021/10/15 10:16:22;;;;;;;7.90;4.90;;;;;;;12.75;50.72;101554.12;1720466;82;21230;-64
2021/10/15 10:19:28;;;;;;;6.90;4.58;;;;;;;12.86;50.21;101551.94;1717496;82;21279;-62
2021/10/15 10:22:34;;;;;;;6.47;4.70;;;;;;;12.96;48.68;101558.70;1725358;82;21798;-64
2021/10/15 10:25:41;;;;;;;6.85;4.37;;;;;;;12.96;48.30;101552.70;1750431;80;21737;-63
2021/10/15 10:28:47;;;;;;;7.05;4.95;;;;;;;13.00;48.63;101540.88;1750079;82;21226;-62
2021/10/15 10:31:55;;;;;;;6.45;4.37;;;;;;;13.13;48.96;101542.17;1751103;82;21210;-64
2021/10/15 10:35:00;;;;;;;6.55;4.72;;;;;;;13.26;48.42;101537.59;1751065;80;21243;-65
2021/10/15 10:38:31;;;;;;;9.40;5.45;;;;;;;13.34;47.61;101531.63;1750622;82;21207;-63
2021/10/15 10:41:36;;;;;;;7.03;5.10;;;;;;;13.42;47.11;101520.66;1751270;82;21858;-63
2021/10/15 10:44:46;;;;;;;6.58;4.87;;;;;;;13.50;46.90;101523.44;1816054;77;21353;-64
2021/10/15 10:48:12;;;;;;;8.43;4.92;;;;;;;13.58;46.12;101513.46;1806777;79;21286;-62
2021/10/15 10:51:18;;;;;;;8.68;4.55;;;;;;;13.64;45.56;101519.16;1782252;80;21188;-63
2021/10/15 10:54:34;;;;;;;5.37;3.60;;;;;;;13.69;45.09;101511.77;1781699;80;21290;-63
2021/10/15 10:57:48;;;;;;;8.23;4.83;;;;;;;13.76;45.08;101518.34;1764584;80;21330;-63
2021/10/15 11:00:52;;;;;;;6.28;4.17;;;;;;;13.83;44.80;101515.23;1782633;80;21365;-64
2021/10/15 11:04:02;;;;;;;5.70;3.90;;;;;;;13.91;44.86;101513.88;1781913;79;21862;-64
2021/10/15 11:07:17;;;;;;;6.12;3.80;;;;;;;13.96;44.65;101506.84;1770239;81;21356;-64
2021/10/15 11:10:28;;;;;;;5.60;3.25;;;;;;;14.00;44.21;101505.45;1770353;81;21364;-64
2021/10/15 11:13:42;;;;;;;5.35;3.42;;;;;;;14.10;44.48;101498.41;1769922;81;21796;-65
2021/10/15 11:16:47;;;;;;;6.70;3.43;;;;;;;14.21;44.19;101493.94;1769791;81;21225;-66
2021/10/15 11:19:54;;;;;;;7.17;4.28;;;;;;;14.36;44.02;101485.37;1749794;80;21355;-66
2021/10/15 11:23:13;;;;;;;6.67;4.80;;;;;;;14.50;43.67;101483.28;1749429;80;21195;-65
2021/10/15 11:26:19;;;;;;;6.28;3.75;;;;;;;14.64;43.33;101488.08;1756107;80;21408;-64
2021/10/15 11:29:24;;;;;;;6.60;5.10;;;;;;;14.77;43.23;101497.55;1755152;80;21206;-63
2021/10/15 11:32:46;;;;;;;7.08;4.50;;;;;;;14.90;42.40;101487.34;1769397;79;21372;-63
2021/10/15 11:35:56;;;;;;;5.58;4.08;;;;;;;14.89;41.48;101485.59;1785696;80;21381;-64
2021/10/15 11:39:09;;;;;;;6.28;3.72;;;;;;;14.65;41.70;101493.95;1785455;80;21334;-62
2021/10/15 11:42:21;;;;;;;5.72;4.08;;;;;;;14.60;41.39;101493.61;1785900;80;21329;-61
2021/10/15 11:45:39;;;;;;;5.45;3.80;;;;;;;14.63;41.28;101494.64;1786154;80;21369;-62
2021/10/15 11:48:51;;;;;;;6.53;4.25;;;;;;;14.65;41.37;101484.31;1786172;80;21214;-64
2021/10/15 11:51:57;;;;;;;7.62;5.20;;;;;;;14.69;42.34;101492.55;1786463;80;21357;-62
2021/10/15 11:55:03;;;;;;;5.78;4.08;;;;;;;14.71;42.22;101487.19;1767534;80;21776;-62
2021/10/15 11:58:37;;;;;;;6.17;3.85;;;;;;;14.81;42.27;101484.23;1767933;80;21195;-63
2021/10/15 12:01:43;;;;;;;92.55;43.40;;;;;;;14.83;41.83;101482.17;1786107;80;21748;-64
2021/10/15 12:04:48;;;;;;;48.83;24.23;;;;;;;14.90;41.86;101486.80;1782267;79;21868;-63
2021/10/15 12:07:59;;;;;;;27.02;12.07;;;;;;;15.01;41.77;101480.06;1784719;80;21696;-63
2021/10/15 12:11:05;;;;;;;10.50;6.87;;;;;;;15.09;42.26;101481.41;1785369;79;21712;-62
2021/10/15 12:14:20;;;;;;;7.33;4.87;;;;;;;15.06;42.07;101483.16;1784850;79;21179;-63
2021/10/15 12:17:27;;;;;;;7.40;4.62;;;;;;;15.02;42.02;101474.88;1787615;80;21187;-64
2021/10/15 12:20:33;;;;;;;8.28;5.37;;;;;;;14.97;42.36;101489.71;1787600;79;21754;-63
2021/10/15 12:23:39;;;;;;;11.00;6.20;;;;;;;15.00;42.60;101482.45;1784627;80;21361;-63
2021/10/15 12:26:44;;;;;;;9.15;5.37;;;;;;;14.96;42.38;101483.87;1767062;80;21361;-62
2021/10/15 12:30:03;;;;;;;9.35;5.87;;;;;;;14.83;42.48;101485.80;1776053;79;21369;-63
2021/10/15 12:33:17;;;;;;;8.30;4.45;;;;;;;14.73;42.41;101482.38;1781777;80;21752;-64
2021/10/15 12:36:35;;;;;;;5.83;3.97;;;;;;;14.74;42.48;101475.84;1783725;80;21361;-63
2021/10/15 12:39:41;;;;;;;6.10;4.25;;;;;;;14.74;42.66;101481.86;1783267;79;21488;-63
2021/10/15 12:42:48;;;;;;;7.15;4.55;;;;;;;14.73;42.90;101482.38;1784828;80;21318;-63
2021/10/15 12:46:00;;;;;;;7.33;5.12;;;;;;;14.76;42.94;101476.50;1780026;79;21362;-62
2021/10/15 12:49:10;;;;;;;8.18;5.12;;;;;;;14.84;42.87;101472.89;1747402;80;21739;-63
2021/10/15 12:52:17;;;;;;;8.45;5.05;;;;;;;14.89;42.78;101473.19;1750431;82;21179;-63
2021/10/15 12:55:32;;;;;;;4.87;3.50;;;;;;;14.93;42.62;101463.55;1753225;80;21858;-63
2021/10/15 12:58:39;;;;;;;9.30;6.72;;;;;;;14.97;42.39;101466.27;1753788;80;21241;-63
2021/10/15 13:01:46;;;;;;;7.45;5.20;;;;;;;14.99;42.15;101467.83;1766931;79;21205;-62
2021/10/15 13:04:54;;;;;;;6.20;4.15;;;;;;;15.00;41.99;101464.53;1783145;79;21264;-63
2021/10/15 13:08:02;;;;;;;6.50;4.20;;;;;;;14.99;41.58;101457.31;1780915;79;21211;-64
2021/10/15 13:11:08;;;;;;;5.25;3.80;;;;;;;15.01;41.44;101458.84;1783850;78;21207;-62
2021/10/15 13:14:14;;;;;;;5.05;3.40;;;;;;;15.05;41.51;101453.83;1779482;78;21763;-62
2021/10/15 13:17:20;;;;;;;5.00;3.65;;;;;;;15.06;41.39;101462.47;1779640;79;21677;-62
2021/10/15 13:20:31;;;;;;;5.70;3.75;;;;;;;15.05;41.04;101466.24;1780404;79;21244;-62
2021/10/15 13:23:37;;;;;;;5.00;3.75;;;;;;;15.03;41.16;101465.59;1751704;82;21198;-62
2021/10/15 13:26:43;;;;;;;6.62;3.60;;;;;;;14.99;41.41;101455.42;1747387;79;21181;-62
2021/10/15 13:29:49;;;;;;;5.65;3.37;;;;;;;14.95;41.22;101457.34;1717457;82;21436;-62
2021/10/15 13:32:54;;;;;;;5.28;3.70;;;;;;;14.87;40.78;101451.86;1718082;83;21848;-61
2021/10/15 13:36:01;;;;;;;7.05;3.87;;;;;;;14.82;40.72;101446.87;1717473;82;21378;-60
2021/10/15 13:39:09;;;;;;;7.20;4.75;;;;;;;14.76;40.60;101444.80;1717971;82;21353;-62
2021/10/15 13:52:27;;;;;;;6.03;4.35;;;;;;;14.51;41.27;101445.03;1719093;83;20213;-61
2021/10/15 13:55:41;;;;;;;5.78;4.20;;;;;;;14.46;41.60;101453.00;1717080;82;21952;-61
2021/10/15 13:58:44;;;;;;;9.15;3.77;;;;;;;14.41;41.79;101450.73;1716077;83;21216;-63
2021/10/15 14:01:56;;;;;;;9.23;4.47;;;;;;;14.35;41.79;101447.84;1724622;80;21342;-61
2021/10/15 14:05:01;;;;;;;6.35;4.00;;;;;;;14.26;41.84;101446.11;1745998;80;21400;-61
2021/10/15 14:08:08;;;;;;;6.80;3.77;;;;;;;14.18;42.08;101436.45;1747221;81;21180;-61
2021/10/15 14:11:16;;;;;;;6.55;3.65;;;;;;;14.11;42.44;101431.30;1747390;80;21357;-62
2021/10/15 14:14:21;;;;;;;5.72;3.85;;;;;;;14.05;42.54;101441.64;1727005;82;21394;-61
2021/10/15 14:17:27;;;;;;;7.67;4.40;;;;;;;13.97;42.83;101441.64;1742425;82;21337;-60
2021/10/15 14:20:32;;;;;;;9.50;4.80;;;;;;;13.90;43.12;101443.34;1742206;81;21807;-63
2021/10/15 14:23:38;;;;;;;7.92;4.97;;;;;;;13.84;43.38;101438.53;1742181;82;21341;-62
2021/10/15 14:26:42;;;;;;;7.62;5.17;;;;;;;13.78;43.70;101433.72;1724973;80;21724;-61
2021/10/15 14:29:48;;;;;;;9.80;4.80;;;;;;;13.72;43.84;101431.62;1739571;81;21168;-62
2021/10/15 14:32:57;;;;;;;10.08;5.65;;;;;;;13.64;43.98;101434.39;1739362;82;21238;-60
2021/10/15 14:36:03;;;;;;;11.20;6.83;;;;;;;13.54;44.27;101437.30;1749365;80;21224;-61
2021/10/15 14:39:08;;;;;;;13.93;7.95;;;;;;;13.39;45.50;101441.72;1754968;80;21187;-60
2021/10/15 14:42:16;;;;;;;12.68;7.37;;;;;;;13.21;46.38;101443.72;1729191;82;21180;-61
2021/10/15 14:45:23;;;;;;;18.35;8.60;;;;;;;13.00;47.56;101446.91;1734685;81;21377;-62
2021/10/15 14:48:28;;;;;;;16.50;9.58;;;;;;;12.74;48.54;101454.33;1741492;81;21734;-61
2021/10/15 14:51:37;;;;;;;15.25;9.40;;;;;;;12.45;50.11;101448.31;1758698;81;21972;-61